sensor_id;sensor_type;location;lat;lon;timestamp;temperature;humidity
68354;DHT22;55274;43.060;25.618;2023-07-13T00:00:28;23.60;99.90
68354;DHT22;55274;43.060;25.618;2023-07-13T00:02:54;23.70;99.90
68354;DHT22;55274;43.060;25.618;2023-07-13T00:05:21;23.70;99.90
68354;DHT22;55274;43.060;25.618;2023-07-13T00:07:48;23.70;99.90
68354;DHT22;55274;43.060;25.618;2023-07-13T00:10:14;23.60;99.90
68354;DHT22;55274;43.060;25.618;2023-07-13T00:12:40;23.60;99.90
68354;DHT22;55274;43.060;25.618;2023-07-13T00:15:13;23.60;99.90
68354;DHT22;55274;43.060;25.618;2023-07-13T00:17:39;23.50;99.90
68354;DHT22;55274;43.060;25.618;2023-07-13T00:20:06;23.40;99.90
68354;DHT22;55274;43.060;25.618;2023-07-13T00:22:32;23.40;99.90
68354;DHT22;55274;43.060;25.618;2023-07-13T00:24:58;23.30;99.90
68354;DHT22;55274;43.060;25.618;2023-07-13T00:27:24;23.30;99.90
68354;DHT22;55274;43.060;25.618;2023-07-13T00:29:52;23.30;99.90
68354;DHT22;55274;43.060;25.618;2023-07-13T00:32:18;23.30;99.90
68354;DHT22;55274;43.060;25.618;2023-07-13T00:34:44;23.20;99.90
68354;DHT22;55274;43.060;25.618;2023-07-13T00:37:10;23.20;99.90
68354;DHT22;55274;43.060;25.618;2023-07-13T00:39:36;23.10;99.90
68354;DHT22;55274;43.060;25.618;2023-07-13T00:42:03;23.10;99.90
68354;DHT22;55274;43.060;25.618;2023-07-13T00:44:30;23.10;99.90
68354;DHT22;55274;43.060;25.618;2023-07-13T00:46:55;23.10;99.90
68354;DHT22;55274;43.060;25.618;2023-07-13T00:49:25;23.00;99.90
68354;DHT22;55274;43.060;25.618;2023-07-13T00:51:56;23.10;99.90
68354;DHT22;55274;43.060;25.618;2023-07-13T00:54:38;23.10;99.90
68354;DHT22;55274;43.060;25.618;2023-07-13T00:57:09;23.00;99.90
68354;DHT22;55274;43.060;25.618;2023-07-13T00:59:36;23.00;99.90
68354;DHT22;55274;43.060;25.618;2023-07-13T01:02:05;23.00;99.90
68354;DHT22;55274;43.060;25.618;2023-07-13T01:04:31;23.00;99.90
68354;DHT22;55274;43.060;25.618;2023-07-13T01:06:57;23.00;99.90
68354;DHT22;55274;43.060;25.618;2023-07-13T01:09:23;23.00;99.90
68354;DHT22;55274;43.060;25.618;2023-07-13T01:11:49;22.90;99.90
68354;DHT22;55274;43.060;25.618;2023-07-13T01:14:15;22.90;99.90
68354;DHT22;55274;43.060;25.618;2023-07-13T01:16:44;23.00;99.90
68354;DHT22;55274;43.060;25.618;2023-07-13T01:19:36;23.00;99.90
68354;DHT22;55274;43.060;25.618;2023-07-13T01:22:11;22.90;99.90
68354;DHT22;55274;43.060;25.618;2023-07-13T01:24:39;22.80;99.90
68354;DHT22;55274;43.060;25.618;2023-07-13T01:27:07;22.80;99.90
68354;DHT22;55274;43.060;25.618;2023-07-13T01:29:34;22.80;99.90
68354;DHT22;55274;43.060;25.618;2023-07-13T01:32:12;22.80;99.90
68354;DHT22;55274;43.060;25.618;2023-07-13T01:34:38;22.80;99.90
68354;DHT22;55274;43.060;25.618;2023-07-13T01:37:09;22.90;99.90
68354;DHT22;55274;43.060;25.618;2023-07-13T01:39:35;22.80;99.90
68354;DHT22;55274;43.060;25.618;2023-07-13T01:42:01;22.80;99.90
68354;DHT22;55274;43.060;25.618;2023-07-13T01:44:27;22.70;99.90
68354;DHT22;55274;43.060;25.618;2023-07-13T01:46:52;22.70;99.90
68354;DHT22;55274;43.060;25.618;2023-07-13T01:49:18;22.70;99.90
68354;DHT22;55274;43.060;25.618;2023-07-13T01:51:44;22.70;99.90
68354;DHT22;55274;43.060;25.618;2023-07-13T01:54:10;22.60;99.90
68354;DHT22;55274;43.060;25.618;2023-07-13T01:56:36;22.60;99.90
68354;DHT22;55274;43.060;25.618;2023-07-13T01:59:01;22.50;99.90
68354;DHT22;55274;43.060;25.618;2023-07-13T02:01:27;22.50;99.90
68354;DHT22;55274;43.060;25.618;2023-07-13T02:03:53;22.50;99.90
68354;DHT22;55274;43.060;25.618;2023-07-13T02:06:19;22.40;99.90
68354;DHT22;55274;43.060;25.618;2023-07-13T02:08:44;22.50;99.90
68354;DHT22;55274;43.060;25.618;2023-07-13T02:11:10;22.40;99.90
68354;DHT22;55274;43.060;25.618;2023-07-13T02:13:36;22.40;99.90
68354;DHT22;55274;43.060;25.618;2023-07-13T02:16:02;22.40;99.90
68354;DHT22;55274;43.060;25.618;2023-07-13T02:18:28;22.40;99.90
68354;DHT22;55274;43.060;25.618;2023-07-13T02:20:54;22.40;99.90
68354;DHT22;55274;43.060;25.618;2023-07-13T02:23:20;22.30;99.90
68354;DHT22;55274;43.060;25.618;2023-07-13T02:25:46;22.30;99.90
68354;DHT22;55274;43.060;25.618;2023-07-13T02:28:12;22.30;99.90
68354;DHT22;55274;43.060;25.618;2023-07-13T02:30:37;22.30;99.90
68354;DHT22;55274;43.060;25.618;2023-07-13T02:33:04;22.30;99.90
68354;DHT22;55274;43.060;25.618;2023-07-13T02:35:30;22.30;99.90
68354;DHT22;55274;43.060;25.618;2023-07-13T02:37:56;22.30;99.90
68354;DHT22;55274;43.060;25.618;2023-07-13T02:40:22;22.30;99.90
68354;DHT22;55274;43.060;25.618;2023-07-13T02:42:48;22.20;99.90
68354;DHT22;55274;43.060;25.618;2023-07-13T02:45:13;22.20;99.90
68354;DHT22;55274;43.060;25.618;2023-07-13T02:47:41;22.20;99.90
68354;DHT22;55274;43.060;25.618;2023-07-13T02:50:07;22.20;99.90
68354;DHT22;55274;43.060;25.618;2023-07-13T02:52:33;22.20;99.90
68354;DHT22;55274;43.060;25.618;2023-07-13T02:54:59;22.20;99.90
68354;DHT22;55274;43.060;25.618;2023-07-13T02:57:25;22.30;99.90
68354;DHT22;55274;43.060;25.618;2023-07-13T02:59:51;22.30;99.90
68354;DHT22;55274;43.060;25.618;2023-07-13T03:02:16;22.30;99.90
68354;DHT22;55274;43.060;25.618;2023-07-13T03:04:43;22.30;99.90
68354;DHT22;55274;43.060;25.618;2023-07-13T03:07:09;22.30;99.90
68354;DHT22;55274;43.060;25.618;2023-07-13T03:09:35;22.30;99.90
68354;DHT22;55274;43.060;25.618;2023-07-13T03:12:02;22.40;99.90
68354;DHT22;55274;43.060;25.618;2023-07-13T03:14:28;22.40;99.90
68354;DHT22;55274;43.060;25.618;2023-07-13T03:16:53;22.40;99.90
68354;DHT22;55274;43.060;25.618;2023-07-13T03:19:19;22.30;99.90
68354;DHT22;55274;43.060;25.618;2023-07-13T03:21:46;22.40;99.90
68354;DHT22;55274;43.060;25.618;2023-07-13T03:24:12;22.40;99.90
68354;DHT22;55274;43.060;25.618;2023-07-13T03:26:38;22.40;99.90
68354;DHT22;55274;43.060;25.618;2023-07-13T03:29:04;22.40;99.90
68354;DHT22;55274;43.060;25.618;2023-07-13T03:31:36;22.50;99.90
68354;DHT22;55274;43.060;25.618;2023-07-13T03:34:02;22.50;99.90
68354;DHT22;55274;43.060;25.618;2023-07-13T03:36:30;22.60;99.90
68354;DHT22;55274;43.060;25.618;2023-07-13T03:38:59;22.60;99.90
68354;DHT22;55274;43.060;25.618;2023-07-13T03:41:25;22.60;99.90
68354;DHT22;55274;43.060;25.618;2023-07-13T03:43:51;22.70;99.90
68354;DHT22;55274;43.060;25.618;2023-07-13T03:46:17;22.70;99.90
68354;DHT22;55274;43.060;25.618;2023-07-13T03:48:45;22.70;99.90
68354;DHT22;55274;43.060;25.618;2023-07-13T03:51:12;22.70;99.90
68354;DHT22;55274;43.060;25.618;2023-07-13T03:53:42;22.80;99.90
68354;DHT22;55274;43.060;25.618;2023-07-13T03:56:09;22.90;99.90
68354;DHT22;55274;43.060;25.618;2023-07-13T03:58:37;23.00;99.90
68354;DHT22;55274;43.060;25.618;2023-07-13T04:01:05;23.00;99.90
68354;DHT22;55274;43.060;25.618;2023-07-13T04:03:32;23.00;99.90
68354;DHT22;55274;43.060;25.618;2023-07-13T04:05:59;23.10;99.90
68354;DHT22;55274;43.060;25.618;2023-07-13T04:08:36;23.20;99.90
68354;DHT22;55274;43.060;25.618;2023-07-13T04:11:04;23.30;99.90
68354;DHT22;55274;43.060;25.618;2023-07-13T04:13:30;23.70;99.90
68354;DHT22;55274;43.060;25.618;2023-07-13T04:15:56;24.20;99.90
68354;DHT22;55274;43.060;25.618;2023-07-13T04:18:22;24.60;99.90
68354;DHT22;55274;43.060;25.618;2023-07-13T04:20:49;25.00;99.90
68354;DHT22;55274;43.060;25.618;2023-07-13T04:23:16;25.30;99.90
68354;DHT22;55274;43.060;25.618;2023-07-13T04:25:49;25.70;99.90
68354;DHT22;55274;43.060;25.618;2023-07-13T04:28:22;26.20;99.30
68354;DHT22;55274;43.060;25.618;2023-07-13T04:30:48;26.70;96.50
68354;DHT22;55274;43.060;25.618;2023-07-13T04:33:14;27.20;94.20
68354;DHT22;55274;43.060;25.618;2023-07-13T04:35:43;27.60;92.90
68354;DHT22;55274;43.060;25.618;2023-07-13T04:38:09;27.90;91.00
68354;DHT22;55274;43.060;25.618;2023-07-13T04:40:36;28.00;88.50
68354;DHT22;55274;43.060;25.618;2023-07-13T04:43:02;28.30;88.50
68354;DHT22;55274;43.060;25.618;2023-07-13T04:45:28;28.60;86.30
68354;DHT22;55274;43.060;25.618;2023-07-13T04:47:54;28.90;85.50
68354;DHT22;55274;43.060;25.618;2023-07-13T04:50:20;29.10;86.50
68354;DHT22;55274;43.060;25.618;2023-07-13T04:52:51;29.50;83.20
68354;DHT22;55274;43.060;25.618;2023-07-13T04:55:18;29.50;81.90
68354;DHT22;55274;43.060;25.618;2023-07-13T04:57:44;29.80;80.60
68354;DHT22;55274;43.060;25.618;2023-07-13T05:00:10;30.00;80.50
68354;DHT22;55274;43.060;25.618;2023-07-13T05:02:38;30.00;81.10
68354;DHT22;55274;43.060;25.618;2023-07-13T05:05:04;30.30;79.80
68354;DHT22;55274;43.060;25.618;2023-07-13T05:07:30;30.60;77.70
68354;DHT22;55274;43.060;25.618;2023-07-13T05:09:59;30.90;76.00
68354;DHT22;55274;43.060;25.618;2023-07-13T05:12:26;31.50;74.90
68354;DHT22;55274;43.060;25.618;2023-07-13T05:14:52;31.70;74.50
68354;DHT22;55274;43.060;25.618;2023-07-13T05:17:18;31.70;72.20
68354;DHT22;55274;43.060;25.618;2023-07-13T05:19:44;31.90;71.60
68354;DHT22;55274;43.060;25.618;2023-07-13T05:22:09;32.00;71.50
68354;DHT22;55274;43.060;25.618;2023-07-13T05:24:35;32.10;70.00
68354;DHT22;55274;43.060;25.618;2023-07-13T05:27:01;32.20;68.50
68354;DHT22;55274;43.060;25.618;2023-07-13T05:29:27;32.50;69.00
68354;DHT22;55274;43.060;25.618;2023-07-13T05:31:53;32.60;66.10
68354;DHT22;55274;43.060;25.618;2023-07-13T05:34:19;32.90;65.80
68354;DHT22;55274;43.060;25.618;2023-07-13T05:36:44;33.20;66.20
68354;DHT22;55274;43.060;25.618;2023-07-13T05:39:10;33.20;66.30
68354;DHT22;55274;43.060;25.618;2023-07-13T05:41:37;33.30;66.10
68354;DHT22;55274;43.060;25.618;2023-07-13T05:44:03;33.40;65.90
68354;DHT22;55274;43.060;25.618;2023-07-13T05:46:30;33.40;66.20
68354;DHT22;55274;43.060;25.618;2023-07-13T05:48:56;33.70;65.60
68354;DHT22;55274;43.060;25.618;2023-07-13T05:51:22;33.80;64.20
68354;DHT22;55274;43.060;25.618;2023-07-13T05:53:48;34.00;62.90
68354;DHT22;55274;43.060;25.618;2023-07-13T05:56:13;34.20;62.70
68354;DHT22;55274;43.060;25.618;2023-07-13T05:58:39;34.50;60.20
68354;DHT22;55274;43.060;25.618;2023-07-13T06:01:10;34.60;59.60
68354;DHT22;55274;43.060;25.618;2023-07-13T06:03:36;34.60;60.50
68354;DHT22;55274;43.060;25.618;2023-07-13T06:06:05;34.50;58.70
68354;DHT22;55274;43.060;25.618;2023-07-13T06:08:31;34.80;58.40
68354;DHT22;55274;43.060;25.618;2023-07-13T06:11:17;34.80;57.30
68354;DHT22;55274;43.060;25.618;2023-07-13T06:13:43;34.80;56.90
68354;DHT22;55274;43.060;25.618;2023-07-13T06:16:10;35.00;57.20
68354;DHT22;55274;43.060;25.618;2023-07-13T06:18:37;34.80;57.60
68354;DHT22;55274;43.060;25.618;2023-07-13T06:21:22;35.00;58.50
68354;DHT22;55274;43.060;25.618;2023-07-13T06:23:49;35.00;56.10
68354;DHT22;55274;43.060;25.618;2023-07-13T06:26:17;35.00;56.70
68354;DHT22;55274;43.060;25.618;2023-07-13T06:28:43;35.00;56.60
68354;DHT22;55274;43.060;25.618;2023-07-13T06:31:10;35.20;56.00
68354;DHT22;55274;43.060;25.618;2023-07-13T06:33:38;35.40;56.70
68354;DHT22;55274;43.060;25.618;2023-07-13T06:36:05;35.60;56.00
68354;DHT22;55274;43.060;25.618;2023-07-13T06:38:31;35.70;54.40
68354;DHT22;55274;43.060;25.618;2023-07-13T06:40:57;35.40;56.90
68354;DHT22;55274;43.060;25.618;2023-07-13T06:43:23;35.50;54.50
68354;DHT22;55274;43.060;25.618;2023-07-13T06:45:51;35.80;53.90
68354;DHT22;55274;43.060;25.618;2023-07-13T06:48:18;35.90;53.50
68354;DHT22;55274;43.060;25.618;2023-07-13T06:50:45;36.00;54.30
68354;DHT22;55274;43.060;25.618;2023-07-13T06:53:11;36.10;53.60
68354;DHT22;55274;43.060;25.618;2023-07-13T06:55:37;36.30;53.70
68354;DHT22;55274;43.060;25.618;2023-07-13T06:58:04;36.40;52.40
68354;DHT22;55274;43.060;25.618;2023-07-13T07:00:30;36.40;52.40
68354;DHT22;55274;43.060;25.618;2023-07-13T07:02:56;36.40;52.50
68354;DHT22;55274;43.060;25.618;2023-07-13T07:05:22;36.50;52.90
68354;DHT22;55274;43.060;25.618;2023-07-13T07:07:50;36.60;52.90
68354;DHT22;55274;43.060;25.618;2023-07-13T07:10:16;36.70;51.30
68354;DHT22;55274;43.060;25.618;2023-07-13T07:12:42;36.70;51.70
68354;DHT22;55274;43.060;25.618;2023-07-13T07:15:08;36.90;51.80
68354;DHT22;55274;43.060;25.618;2023-07-13T07:17:35;37.20;52.40
68354;DHT22;55274;43.060;25.618;2023-07-13T07:20:02;37.40;51.10
68354;DHT22;55274;43.060;25.618;2023-07-13T07:22:29;37.30;51.70
68354;DHT22;55274;43.060;25.618;2023-07-13T07:24:56;37.20;51.50
68354;DHT22;55274;43.060;25.618;2023-07-13T07:27:22;37.40;51.10
68354;DHT22;55274;43.060;25.618;2023-07-13T07:29:48;37.70;50.50
68354;DHT22;55274;43.060;25.618;2023-07-13T07:32:14;37.70;50.30
68354;DHT22;55274;43.060;25.618;2023-07-13T07:34:40;37.90;50.90
68354;DHT22;55274;43.060;25.618;2023-07-13T07:37:06;37.90;49.40
68354;DHT22;55274;43.060;25.618;2023-07-13T07:39:32;38.10;49.30
68354;DHT22;55274;43.060;25.618;2023-07-13T07:41:59;38.30;48.80
68354;DHT22;55274;43.060;25.618;2023-07-13T07:44:25;38.50;49.00
68354;DHT22;55274;43.060;25.618;2023-07-13T07:46:52;38.80;48.80
68354;DHT22;55274;43.060;25.618;2023-07-13T07:49:18;38.90;48.40
68354;DHT22;55274;43.060;25.618;2023-07-13T07:51:44;39.00;50.90
68354;DHT22;55274;43.060;25.618;2023-07-13T07:54:09;39.20;48.00
68354;DHT22;55274;43.060;25.618;2023-07-13T07:56:35;39.20;47.80
68354;DHT22;55274;43.060;25.618;2023-07-13T07:59:01;39.40;47.60
68354;DHT22;55274;43.060;25.618;2023-07-13T08:01:27;39.40;46.10
68354;DHT22;55274;43.060;25.618;2023-07-13T08:03:52;39.60;46.20
68354;DHT22;55274;43.060;25.618;2023-07-13T08:06:18;39.70;46.20
68354;DHT22;55274;43.060;25.618;2023-07-13T08:08:46;39.70;46.30
68354;DHT22;55274;43.060;25.618;2023-07-13T08:11:12;39.80;46.00
68354;DHT22;55274;43.060;25.618;2023-07-13T08:13:38;39.90;45.70
68354;DHT22;55274;43.060;25.618;2023-07-13T08:16:05;40.10;46.20
68354;DHT22;55274;43.060;25.618;2023-07-13T08:18:31;40.30;44.70
68354;DHT22;55274;43.060;25.618;2023-07-13T08:20:57;40.40;45.70
68354;DHT22;55274;43.060;25.618;2023-07-13T08:23:25;40.50;44.10
68354;DHT22;55274;43.060;25.618;2023-07-13T08:25:54;40.60;42.90
68354;DHT22;55274;43.060;25.618;2023-07-13T08:28:21;40.80;42.80
68354;DHT22;55274;43.060;25.618;2023-07-13T08:30:47;40.80;42.40
68354;DHT22;55274;43.060;25.618;2023-07-13T08:33:18;40.80;41.00
68354;DHT22;55274;43.060;25.618;2023-07-13T08:35:51;40.80;41.30
68354;DHT22;55274;43.060;25.618;2023-07-13T08:38:17;41.00;41.80
68354;DHT22;55274;43.060;25.618;2023-07-13T08:40:44;41.00;42.00
68354;DHT22;55274;43.060;25.618;2023-07-13T08:43:16;41.00;39.40
68354;DHT22;55274;43.060;25.618;2023-07-13T08:48:41;41.10;38.10
68354;DHT22;55274;43.060;25.618;2023-07-13T08:51:26;41.40;38.90
68354;DHT22;55274;43.060;25.618;2023-07-13T08:54:03;41.60;36.80
68354;DHT22;55274;43.060;25.618;2023-07-13T08:56:31;41.70;37.40
68354;DHT22;55274;43.060;25.618;2023-07-13T08:59:18;41.70;36.80
68354;DHT22;55274;43.060;25.618;2023-07-13T09:01:54;41.80;38.20
68354;DHT22;55274;43.060;25.618;2023-07-13T09:04:37;41.90;35.20
68354;DHT22;55274;43.060;25.618;2023-07-13T09:15:34;42.60;35.60
68354;DHT22;55274;43.060;25.618;2023-07-13T09:21:09;42.60;31.90
68354;DHT22;55274;43.060;25.618;2023-07-13T09:23:36;42.60;32.80
68354;DHT22;55274;43.060;25.618;2023-07-13T09:26:19;42.70;34.00
68354;DHT22;55274;43.060;25.618;2023-07-13T09:28:48;42.80;33.20
68354;DHT22;55274;43.060;25.618;2023-07-13T09:31:28;42.80;33.50
68354;DHT22;55274;43.060;25.618;2023-07-13T09:33:56;42.60;30.20
68354;DHT22;55274;43.060;25.618;2023-07-13T09:36:26;42.60;31.10
68354;DHT22;55274;43.060;25.618;2023-07-13T09:44:13;42.50;32.00
68354;DHT22;55274;43.060;25.618;2023-07-13T09:46:44;42.80;32.50
68354;DHT22;55274;43.060;25.618;2023-07-13T09:49:11;42.90;32.60
68354;DHT22;55274;43.060;25.618;2023-07-13T09:51:42;42.90;32.60
68354;DHT22;55274;43.060;25.618;2023-07-13T09:54:28;43.10;34.10
68354;DHT22;55274;43.060;25.618;2023-07-13T09:56:58;43.30;34.00
68354;DHT22;55274;43.060;25.618;2023-07-13T09:59:30;43.30;33.50
68354;DHT22;55274;43.060;25.618;2023-07-13T10:01:56;43.10;34.80
68354;DHT22;55274;43.060;25.618;2023-07-13T10:04:31;43.10;34.60
68354;DHT22;55274;43.060;25.618;2023-07-13T10:07:09;43.10;35.10
68354;DHT22;55274;43.060;25.618;2023-07-13T10:09:35;43.20;34.30
68354;DHT22;55274;43.060;25.618;2023-07-13T10:12:01;43.30;34.10
68354;DHT22;55274;43.060;25.618;2023-07-13T10:14:27;43.50;34.00
68354;DHT22;55274;43.060;25.618;2023-07-13T10:17:00;43.80;33.60
68354;DHT22;55274;43.060;25.618;2023-07-13T10:19:35;43.50;34.60
68354;DHT22;55274;43.060;25.618;2023-07-13T10:22:27;43.50;33.60
68354;DHT22;55274;43.060;25.618;2023-07-13T10:24:55;43.60;33.50
68354;DHT22;55274;43.060;25.618;2023-07-13T10:27:34;43.70;33.10
68354;DHT22;55274;43.060;25.618;2023-07-13T10:30:24;43.50;33.50
68354;DHT22;55274;43.060;25.618;2023-07-13T10:32:53;43.60;32.30
68354;DHT22;55274;43.060;25.618;2023-07-13T10:35:21;43.70;32.70
68354;DHT22;55274;43.060;25.618;2023-07-13T10:40:42;43.70;32.40
68354;DHT22;55274;43.060;25.618;2023-07-13T10:43:25;43.60;32.00
68354;DHT22;55274;43.060;25.618;2023-07-13T10:45:53;43.60;32.30
68354;DHT22;55274;43.060;25.618;2023-07-13T10:48:21;43.90;31.60
68354;DHT22;55274;43.060;25.618;2023-07-13T10:50:50;43.60;29.60
68354;DHT22;55274;43.060;25.618;2023-07-13T10:53:28;43.40;30.90
68354;DHT22;55274;43.060;25.618;2023-07-13T10:56:00;43.40;30.30
68354;DHT22;55274;43.060;25.618;2023-07-13T10:58:37;43.40;31.50
68354;DHT22;55274;43.060;25.618;2023-07-13T11:04:00;43.70;30.50
68354;DHT22;55274;43.060;25.618;2023-07-13T11:11:56;43.90;30.70
68354;DHT22;55274;43.060;25.618;2023-07-13T11:16:54;43.60;30.00
68354;DHT22;55274;43.060;25.618;2023-07-13T11:24:56;43.60;29.60
68354;DHT22;55274;43.060;25.618;2023-07-13T11:27:43;43.60;27.80
68354;DHT22;55274;43.060;25.618;2023-07-13T11:33:21;43.60;28.00
68354;DHT22;55274;43.060;25.618;2023-07-13T11:38:22;43.60;26.10
68354;DHT22;55274;43.060;25.618;2023-07-13T11:40:53;43.70;31.00
68354;DHT22;55274;43.060;25.618;2023-07-13T11:43:19;43.60;29.40
68354;DHT22;55274;43.060;25.618;2023-07-13T11:45:50;43.30;29.50
68354;DHT22;55274;43.060;25.618;2023-07-13T11:48:28;43.40;29.10
68354;DHT22;55274;43.060;25.618;2023-07-13T11:51:00;43.50;29.00
68354;DHT22;55274;43.060;25.618;2023-07-13T11:53:30;43.40;29.60
68354;DHT22;55274;43.060;25.618;2023-07-13T11:56:00;43.50;27.20
68354;DHT22;55274;43.060;25.618;2023-07-13T11:58:27;43.40;28.40
68354;DHT22;55274;43.060;25.618;2023-07-13T12:00:55;43.20;27.80
68354;DHT22;55274;43.060;25.618;2023-07-13T12:03:23;43.40;27.60
68354;DHT22;55274;43.060;25.618;2023-07-13T12:08:23;43.10;29.10
68354;DHT22;55274;43.060;25.618;2023-07-13T12:10:57;43.00;28.30
68354;DHT22;55274;43.060;25.618;2023-07-13T12:13:22;43.00;29.20
68354;DHT22;55274;43.060;25.618;2023-07-13T12:15:50;42.90;28.40
68354;DHT22;55274;43.060;25.618;2023-07-13T12:18:22;43.10;29.00
68354;DHT22;55274;43.060;25.618;2023-07-13T12:20:51;43.20;29.00
68354;DHT22;55274;43.060;25.618;2023-07-13T12:23:34;43.10;29.50
68354;DHT22;55274;43.060;25.618;2023-07-13T12:26:05;42.90;29.70
68354;DHT22;55274;43.060;25.618;2023-07-13T12:28:38;42.90;29.00
68354;DHT22;55274;43.060;25.618;2023-07-13T12:31:19;42.90;29.20
68354;DHT22;55274;43.060;25.618;2023-07-13T12:33:48;42.80;28.90
68354;DHT22;55274;43.060;25.618;2023-07-13T12:36:21;42.90;29.40
68354;DHT22;55274;43.060;25.618;2023-07-13T12:38:47;42.60;30.60
68354;DHT22;55274;43.060;25.618;2023-07-13T12:41:15;42.70;31.80
68354;DHT22;55274;43.060;25.618;2023-07-13T12:43:41;42.60;30.40
68354;DHT22;55274;43.060;25.618;2023-07-13T12:46:23;42.50;31.00
68354;DHT22;55274;43.060;25.618;2023-07-13T12:48:53;42.60;30.80
68354;DHT22;55274;43.060;25.618;2023-07-13T12:51:25;42.50;29.40
68354;DHT22;55274;43.060;25.618;2023-07-13T12:54:11;42.40;30.00
68354;DHT22;55274;43.060;25.618;2023-07-13T12:56:38;42.40;30.00
68354;DHT22;55274;43.060;25.618;2023-07-13T12:59:05;42.30;30.10
68354;DHT22;55274;43.060;25.618;2023-07-13T13:01:35;42.20;31.50
68354;DHT22;55274;43.060;25.618;2023-07-13T13:04:04;42.20;33.20
68354;DHT22;55274;43.060;25.618;2023-07-13T13:06:37;42.20;32.60
68354;DHT22;55274;43.060;25.618;2023-07-13T13:09:03;42.20;31.30
68354;DHT22;55274;43.060;25.618;2023-07-13T13:11:31;42.10;32.20
68354;DHT22;55274;43.060;25.618;2023-07-13T13:13:57;42.20;31.60
68354;DHT22;55274;43.060;25.618;2023-07-13T13:18:55;42.20;30.80
68354;DHT22;55274;43.060;25.618;2023-07-13T13:21:23;42.20;30.90
68354;DHT22;55274;43.060;25.618;2023-07-13T13:23:49;42.10;31.40
68354;DHT22;55274;43.060;25.618;2023-07-13T13:26:19;42.10;30.90
68354;DHT22;55274;43.060;25.618;2023-07-13T13:28:45;42.10;31.40
68354;DHT22;55274;43.060;25.618;2023-07-13T13:31:13;42.10;32.50
68354;DHT22;55274;43.060;25.618;2023-07-13T13:33:43;42.10;31.00
68354;DHT22;55274;43.060;25.618;2023-07-13T13:36:29;42.10;30.40
68354;DHT22;55274;43.060;25.618;2023-07-13T13:38:56;42.00;31.60
68354;DHT22;55274;43.060;25.618;2023-07-13T13:41:21;41.90;33.30
68354;DHT22;55274;43.060;25.618;2023-07-13T13:43:47;41.90;32.40
68354;DHT22;55274;43.060;25.618;2023-07-13T13:46:16;41.80;31.30
68354;DHT22;55274;43.060;25.618;2023-07-13T13:48:43;41.70;32.70
68354;DHT22;55274;43.060;25.618;2023-07-13T13:51:20;41.60;32.00
68354;DHT22;55274;43.060;25.618;2023-07-13T13:53:47;41.60;32.10
68354;DHT22;55274;43.060;25.618;2023-07-13T13:56:14;41.60;33.10
68354;DHT22;55274;43.060;25.618;2023-07-13T13:58:40;41.60;32.00
68354;DHT22;55274;43.060;25.618;2023-07-13T14:01:13;41.70;31.70
68354;DHT22;55274;43.060;25.618;2023-07-13T14:03:39;41.60;33.40
68354;DHT22;55274;43.060;25.618;2023-07-13T14:06:07;41.50;36.00
68354;DHT22;55274;43.060;25.618;2023-07-13T14:08:33;41.40;37.00
68354;DHT22;55274;43.060;25.618;2023-07-13T14:10:59;41.40;36.50
68354;DHT22;55274;43.060;25.618;2023-07-13T14:13:36;41.40;36.80
68354;DHT22;55274;43.060;25.618;2023-07-13T14:16:13;41.30;35.20
68354;DHT22;55274;43.060;25.618;2023-07-13T14:18:40;41.10;33.80
68354;DHT22;55274;43.060;25.618;2023-07-13T14:21:18;40.90;34.20
68354;DHT22;55274;43.060;25.618;2023-07-13T14:23:45;40.90;36.30
68354;DHT22;55274;43.060;25.618;2023-07-13T14:26:17;41.00;36.60
68354;DHT22;55274;43.060;25.618;2023-07-13T14:28:46;41.00;35.20
68354;DHT22;55274;43.060;25.618;2023-07-13T14:31:13;41.00;37.60
68354;DHT22;55274;43.060;25.618;2023-07-13T14:33:40;41.00;36.50
68354;DHT22;55274;43.060;25.618;2023-07-13T14:36:23;40.90;37.00
68354;DHT22;55274;43.060;25.618;2023-07-13T14:38:51;40.80;34.80
68354;DHT22;55274;43.060;25.618;2023-07-13T14:41:17;40.80;34.80
68354;DHT22;55274;43.060;25.618;2023-07-13T14:43:42;40.70;41.10
68354;DHT22;55274;43.060;25.618;2023-07-13T14:46:26;40.60;42.40
68354;DHT22;55274;43.060;25.618;2023-07-13T14:49:06;40.50;41.60
68354;DHT22;55274;43.060;25.618;2023-07-13T14:51:33;40.40;40.60
68354;DHT22;55274;43.060;25.618;2023-07-13T14:54:04;40.30;37.60
68354;DHT22;55274;43.060;25.618;2023-07-13T14:56:31;40.30;36.20
68354;DHT22;55274;43.060;25.618;2023-07-13T14:59:02;40.30;39.30
68354;DHT22;55274;43.060;25.618;2023-07-13T15:01:31;40.20;41.30
68354;DHT22;55274;43.060;25.618;2023-07-13T15:07:42;40.00;39.80
68354;DHT22;55274;43.060;25.618;2023-07-13T15:10:22;39.80;42.60
68354;DHT22;55274;43.060;25.618;2023-07-13T15:22:08;39.40;44.80
68354;DHT22;55274;43.060;25.618;2023-07-13T15:24:35;39.10;46.00
68354;DHT22;55274;43.060;25.618;2023-07-13T15:31:05;39.00;44.70
68354;DHT22;55274;43.060;25.618;2023-07-13T15:37:45;38.90;43.80
68354;DHT22;55274;43.060;25.618;2023-07-13T15:40:15;38.50;50.00
68354;DHT22;55274;43.060;25.618;2023-07-13T15:49:20;38.10;52.60
68354;DHT22;55274;43.060;25.618;2023-07-13T15:51:47;37.90;52.10
68354;DHT22;55274;43.060;25.618;2023-07-13T15:54:18;37.80;52.20
68354;DHT22;55274;43.060;25.618;2023-07-13T16:04:03;37.30;58.10
68354;DHT22;55274;43.060;25.618;2023-07-13T16:10:43;37.00;56.30
68354;DHT22;55274;43.060;25.618;2023-07-13T16:13:50;37.00;58.40
68354;DHT22;55274;43.060;25.618;2023-07-13T16:28:42;36.40;62.30
68354;DHT22;55274;43.060;25.618;2023-07-13T16:34:53;35.80;66.50
68354;DHT22;55274;43.060;25.618;2023-07-13T16:40:53;35.40;68.40
68354;DHT22;55274;43.060;25.618;2023-07-13T16:48:34;35.00;67.90
68354;DHT22;55274;43.060;25.618;2023-07-13T16:51:29;34.80;67.80
68354;DHT22;55274;43.060;25.618;2023-07-13T17:05:38;34.60;68.90
68354;DHT22;55274;43.060;25.618;2023-07-13T17:08:34;34.50;69.60
68354;DHT22;55274;43.060;25.618;2023-07-13T17:11:05;34.40;70.70
68354;DHT22;55274;43.060;25.618;2023-07-13T17:22:01;33.70;73.50
68354;DHT22;55274;43.060;25.618;2023-07-13T17:24:35;33.50;74.60
68354;DHT22;55274;43.060;25.618;2023-07-13T17:27:19;33.30;75.30
68354;DHT22;55274;43.060;25.618;2023-07-13T17:29:49;33.20;75.80
68354;DHT22;55274;43.060;25.618;2023-07-13T17:32:22;33.10;76.30
68354;DHT22;55274;43.060;25.618;2023-07-13T17:34:55;33.00;76.80
68354;DHT22;55274;43.060;25.618;2023-07-13T17:37:28;32.80;76.50
68354;DHT22;55274;43.060;25.618;2023-07-13T17:40:20;32.70;77.10